Time;durP1;ratioP1;P1;durP2;ratioP2;P2;SDS_P1;SDS_P2;PMS_P1;PMS_P2;Temp;Humidity;BMP_temperature;BMP_pressure;BME280_temperature;BME280_humidity;BME280_pressure;Samples;Min_cycle;Max_cycle;Signal;HPM_P1;HPM_P2
2021/05/04 00:02:13;;;;;;;0.47;0.40;;;;;;;9.43;58.21;100059.03;4910174;29;20095;-78
2021/05/04 00:04:38;;;;;;;0.40;0.40;;;;;;;9.41;58.76;100050.53;4880338;29;20047;-78
2021/05/04 00:07:04;;;;;;;0.40;0.40;;;;;;;9.44;56.73;100026.88;4894256;29;20076;-80
2021/05/04 00:09:29;;;;;;;0.68;0.30;;;;;;;9.33;56.70;100007.00;4908121;29;20574;-79
2021/05/04 00:11:55;;;;;;;0.68;0.40;;;;;;;9.40;58.52;100022.91;4893382;29;20054;-79
2021/05/04 00:14:20;;;;;;;0.32;0.32;;;;;;;9.39;58.68;100021.28;4910578;29;20410;-79
2021/05/04 00:16:46;;;;;;;0.35;0.35;;;;;;;9.28;57.86;99982.38;4895632;29;20458;-79
2021/05/04 00:19:12;;;;;;;0.40;0.40;;;;;;;9.47;58.18;100005.81;4896770;29;20071;-79
2021/05/04 00:21:38;;;;;;;0.30;0.30;;;;;;;9.29;58.29;99971.84;4905525;29;20079;-79
2021/05/04 00:24:04;;;;;;;0.30;0.30;;;;;;;9.47;60.24;100016.22;4895357;29;20130;-79
2021/05/04 00:26:30;;;;;;;0.30;0.30;;;;;;;9.28;60.03;99974.59;4910908;29;20748;-77
2021/05/04 00:28:56;;;;;;;0.45;0.40;;;;;;;9.40;59.89;99996.94;4910442;29;20052;-78
2021/05/04 00:31:21;;;;;;;0.52;0.43;;;;;;;9.35;61.44;99971.34;4923149;29;20425;-78
2021/05/04 00:33:47;;;;;;;0.40;0.40;;;;;;;9.35;62.17;99968.75;4896055;29;20111;-79
2021/05/04 00:36:12;;;;;;;0.30;0.30;;;;;;;9.37;60.83;99973.81;4875968;29;20048;-79
2021/05/04 00:38:38;;;;;;;0.30;0.30;;;;;;;9.32;59.88;99961.19;4904063;29;20390;-79
2021/05/04 00:41:04;;;;;;;0.40;0.40;;;;;;;9.18;61.43;99927.81;4896423;29;20698;-79
2021/05/04 00:43:32;;;;;;;0.47;0.40;;;;;;;9.30;62.51;99955.31;4858241;29;20059;-79
2021/05/04 00:45:57;;;;;;;0.40;0.35;;;;;;;9.07;61.73;99909.72;4908360;29;20131;-79
2021/05/04 00:48:24;;;;;;;2.13;0.47;;;;;;;9.24;61.93;99939.44;4892207;29;20063;-79
2021/05/04 00:50:50;;;;;;;0.45;0.40;;;;;;;9.04;64.41;99907.38;4915589;29;20075;-79
2021/05/04 00:53:16;;;;;;;0.40;0.40;;;;;;;9.08;62.36;99919.97;4877945;29;20048;-78
2021/05/04 00:55:42;;;;;;;0.50;0.50;;;;;;;9.07;62.63;99918.31;4880060;29;20396;-78
2021/05/04 00:58:11;;;;;;;0.50;0.50;;;;;;;9.03;61.69;99888.38;4881867;29;20056;-79
2021/05/04 01:00:36;;;;;;;0.75;0.50;;;;;;;8.98;64.11;99895.75;4885265;29;20093;-78
2021/05/04 01:03:03;;;;;;;1.83;0.60;;;;;;;8.92;65.94;99901.47;4877639;29;20083;-78
2021/05/04 01:05:29;;;;;;;0.55;0.50;;;;;;;8.86;64.55;99876.03;4892728;29;20074;-78
2021/05/04 01:07:54;;;;;;;0.50;0.50;;;;;;;8.85;66.57;99895.16;4929068;29;20052;-77
2021/05/04 01:10:21;;;;;;;0.60;0.60;;;;;;;8.71;65.81;99882.53;4899797;29;20551;-79
2021/05/04 01:12:47;;;;;;;0.60;0.60;;;;;;;8.70;66.07;99878.28;4924772;29;20083;-80
2021/05/04 01:15:13;;;;;;;0.55;0.55;;;;;;;8.59;67.77;99860.19;4912186;29;20048;-80
2021/05/04 01:17:38;;;;;;;1.42;0.70;;;;;;;8.53;68.26;99858.13;4884991;29;20041;-80
2021/05/04 01:20:05;;;;;;;1.17;0.82;;;;;;;8.43;69.25;99861.50;4909424;29;20138;-80
2021/05/04 01:22:31;;;;;;;0.60;0.60;;;;;;;8.28;69.93;99839.41;4877445;29;21014;-79
2021/05/04 01:24:56;;;;;;;2.20;0.90;;;;;;;8.29;70.87;99835.06;4885690;29;20071;-80
2021/05/04 01:27:22;;;;;;;1.10;0.95;;;;;;;8.28;71.11;99841.19;4878439;29;20076;-78
2021/05/04 01:29:48;;;;;;;1.25;1.02;;;;;;;8.18;71.73;99849.72;4865701;29;20430;-78
2021/05/04 01:32:15;;;;;;;1.05;0.95;;;;;;;7.95;73.82;99811.94;4912227;29;20044;-79
2021/05/04 01:34:42;;;;;;;1.90;1.20;;;;;;;8.05;75.24;99836.13;4866628;29;20136;-80
2021/05/04 01:37:08;;;;;;;1.02;1.00;;;;;;;7.87;74.47;99804.78;4862561;29;20056;-79
2021/05/04 01:39:43;;;;;;;1.58;1.40;;;;;;;7.77;76.10;99816.88;4922808;29;20159;-80
2021/05/04 01:42:09;;;;;;;0.90;0.90;;;;;;;7.69;76.21;99808.88;4906590;29;20044;-79
2021/05/04 01:44:35;;;;;;;1.13;1.00;;;;;;;7.65;77.08;99797.13;4885094;29;20067;-79
2021/05/04 01:47:00;;;;;;;1.27;1.17;;;;;;;7.50;77.38;99781.06;4893463;29;20048;-79
2021/05/04 01:49:26;;;;;;;1.35;1.10;;;;;;;7.57;78.35;99796.94;4908086;29;20111;-79
2021/05/04 01:51:55;;;;;;;1.52;1.42;;;;;;;7.58;78.91;99803.75;4908476;29;20467;-80
2021/05/04 01:54:21;;;;;;;1.38;1.08;;;;;;;7.34;79.45;99754.75;4909715;29;20056;-80
2021/05/04 01:56:46;;;;;;;1.20;1.10;;;;;;;7.27;80.83;99751.03;4897701;29;20108;-79
2021/05/04 01:59:12;;;;;;;1.13;1.02;;;;;;;7.35;81.14;99778.88;4881146;29;20048;-79
2021/05/04 02:01:37;;;;;;;2.00;1.27;;;;;;;7.23;82.05;99749.66;4875793;29;20043;-79
2021/05/04 02:04:03;;;;;;;1.10;1.00;;;;;;;7.19;82.48;99737.91;4917111;29;20794;-79
2021/05/04 02:06:29;;;;;;;2.78;1.33;;;;;;;7.15;82.65;99734.72;4892224;29;20063;-79
2021/05/04 02:08:54;;;;;;;1.38;1.10;;;;;;;7.30;81.74;99743.00;4833080;29;20071;-79
2021/05/04 02:11:20;;;;;;;2.25;1.27;;;;;;;7.33;81.22;99735.00;4877196;29;20044;-79
2021/05/04 02:13:45;;;;;;;1.70;1.20;;;;;;;7.36;80.96;99736.50;4894631;29;20052;-79
2021/05/04 02:16:11;;;;;;;1.25;0.95;;;;;;;7.06;81.61;99686.28;4866311;29;20514;-79
2021/05/04 02:18:36;;;;;;;4.72;1.20;;;;;;;7.33;82.19;99724.63;4848516;29;20055;-78
2021/05/04 02:21:02;;;;;;;1.20;0.90;;;;;;;6.93;81.30;99651.97;4909654;29;20036;-81
2021/05/04 02:23:28;;;;;;;2.15;1.08;;;;;;;7.25;82.30;99706.31;4877594;29;20044;-79
2021/05/04 02:25:53;;;;;;;0.82;0.82;;;;;;;7.11;81.10;99688.50;4882845;29;20045;-80
2021/05/04 02:28:19;;;;;;;1.08;1.00;;;;;;;7.23;82.71;99688.31;4893734;29;20052;-80
2021/05/04 02:30:44;;;;;;;1.50;0.95;;;;;;;7.16;83.27;99683.75;4879780;29;20584;-80
2021/05/04 02:33:10;;;;;;;0.93;0.80;;;;;;;7.18;82.38;99681.84;4914496;29;20056;-80
2021/05/04 02:35:36;;;;;;;1.95;0.90;;;;;;;6.88;83.57;99615.31;4900900;29;20130;-80
2021/05/04 02:38:02;;;;;;;0.90;0.90;;;;;;;6.97;82.77;99630.06;4910424;29;20051;-80
2021/05/04 02:40:27;;;;;;;0.80;0.80;;;;;;;6.86;82.78;99604.28;4949124;28;20087;-80
2021/05/04 02:42:53;;;;;;;1.65;0.82;;;;;;;7.02;82.76;99627.94;4901838;29;20062;-80
2021/05/04 02:45:18;;;;;;;0.85;0.80;;;;;;;7.12;83.19;99641.75;4910883;29;20601;-80
2021/05/04 02:47:44;;;;;;;2.13;0.90;;;;;;;6.85;84.26;99589.69;4915210;29;20051;-78
2021/05/04 02:50:10;;;;;;;1.85;0.70;;;;;;;7.06;82.45;99613.81;4911540;29;20043;-80
2021/05/04 02:52:35;;;;;;;1.17;0.80;;;;;;;6.96;83.07;99585.25;4914675;29;20546;-79
2021/05/04 02:55:01;;;;;;;2.40;0.90;;;;;;;7.04;83.14;99594.19;4902324;29;20052;-80
2021/05/04 02:57:27;;;;;;;0.70;0.70;;;;;;;7.09;83.15;99595.44;4915973;29;20151;-79
2021/05/04 02:59:52;;;;;;;0.70;0.60;;;;;;;7.02;82.91;99565.00;4907506;29;20095;-79
2021/05/04 03:02:18;;;;;;;1.95;0.77;;;;;;;7.06;82.78;99567.22;4945864;28;20079;-79
2021/05/04 03:04:43;;;;;;;0.77;0.70;;;;;;;6.96;83.37;99549.03;4930965;29;20769;-79
2021/05/04 03:07:09;;;;;;;0.93;0.70;;;;;;;7.06;83.85;99550.84;4898978;29;20056;-79
2021/05/04 03:09:35;;;;;;;1.83;0.80;;;;;;;7.04;84.11;99550.16;4898782;29;20127;-79
2021/05/04 03:12:00;;;;;;;1.00;0.63;;;;;;;6.97;83.82;99522.19;4926325;29;20549;-80
2021/05/04 03:14:26;;;;;;;0.47;0.40;;;;;;;6.98;83.52;99505.72;4872044;29;20494;-79
2021/05/04 03:16:52;;;;;;;3.78;0.80;;;;;;;6.99;84.37;99503.94;4900684;29;20490;-80
2021/05/04 03:19:18;;;;;;;2.72;0.80;;;;;;;6.93;84.54;99491.53;4918809;29;20054;-80
2021/05/04 03:21:44;;;;;;;1.48;0.70;;;;;;;6.83;84.18;99475.16;4917596;29;20043;-80
2021/05/04 03:24:10;;;;;;;3.33;1.00;;;;;;;6.92;84.59;99493.28;4929415;29;20525;-79
2021/05/04 03:26:35;;;;;;;0.82;0.70;;;;;;;6.83;84.61;99469.97;4902374;29;20055;-80
2021/05/04 03:29:01;;;;;;;1.05;0.70;;;;;;;6.98;84.15;99508.28;4912088;29;20050;-79
2021/05/04 03:31:27;;;;;;;0.95;0.73;;;;;;;6.89;85.24;99492.75;4911787;29;20162;-79
2021/05/04 03:33:52;;;;;;;1.33;0.70;;;;;;;6.85;85.95;99465.47;4922453;29;20235;-80
2021/05/04 03:36:18;;;;;;;2.15;0.70;;;;;;;6.90;85.03;99478.84;4922830;29;20051;-80
2021/05/04 03:38:44;;;;;;;1.08;0.63;;;;;;;6.94;85.26;99478.44;4888028;29;20054;-80
2021/05/04 03:41:09;;;;;;;0.50;0.50;;;;;;;6.86;85.50;99434.28;4911779;29;20054;-80
2021/05/04 03:43:35;;;;;;;1.60;0.60;;;;;;;6.85;85.18;99440.41;4898767;29;20040;-80
2021/05/04 03:46:01;;;;;;;0.38;0.38;;;;;;;6.81;85.48;99417.50;4933447;29;20051;-79
2021/05/04 03:48:27;;;;;;;2.92;0.70;;;;;;;6.71;85.53;99404.53;4911847;29;20124;-80
2021/05/04 03:50:52;;;;;;;1.02;0.60;;;;;;;7.03;85.80;99445.81;4913473;29;20490;-80
2021/05/04 03:53:18;;;;;;;0.85;0.50;;;;;;;6.92;85.70;99422.59;4890232;29;20072;-80
2021/05/04 03:55:45;;;;;;;1.13;0.57;;;;;;;6.91;86.63;99431.31;4903495;29;20051;-80
2021/05/04 03:58:11;;;;;;;0.95;0.40;;;;;;;6.98;86.15;99438.41;4929202;29;20054;-80
2021/05/04 04:00:36;;;;;;;1.10;0.68;;;;;;;7.01;86.33;99427.00;4918056;29;20048;-80
2021/05/04 04:03:02;;;;;;;0.47;0.43;;;;;;;7.00;86.08;99402.03;4885143;29;20159;-79
2021/05/04 04:05:28;;;;;;;1.00;0.65;;;;;;;6.81;86.80;99365.75;4906177;29;20537;-80
2021/05/04 04:07:53;;;;;;;3.67;0.52;;;;;;;7.00;87.13;99396.88;4916440;29;20478;-79
2021/05/04 04:10:19;;;;;;;1.05;0.60;;;;;;;6.82;86.55;99372.56;4907310;29;20071;-79
2021/05/04 04:12:45;;;;;;;0.85;0.65;;;;;;;6.94;85.98;99379.28;4944812;28;20551;-80
2021/05/04 04:15:11;;;;;;;0.95;0.50;;;;;;;6.84;86.71;99344.81;4890377;29;20059;-80
2021/05/04 04:17:36;;;;;;;0.77;0.50;;;;;;;6.86;86.54;99353.25;4909532;29;20047;-79
2021/05/04 04:20:04;;;;;;;0.60;0.50;;;;;;;6.86;86.77;99338.56;4914100;29;20044;-79
2021/05/04 04:22:29;;;;;;;0.50;0.50;;;;;;;6.93;86.44;99347.41;4944591;28;20142;-80
2021/05/04 04:24:55;;;;;;;0.63;0.45;;;;;;;7.08;86.72;99353.03;4906889;29;20582;-80
2021/05/04 04:27:24;;;;;;;0.57;0.40;;;;;;;7.10;86.14;99350.31;4915501;29;20075;-80
2021/05/04 04:29:50;;;;;;;0.85;0.50;;;;;;;6.92;85.78;99300.97;4923966;29;20070;-80
2021/05/04 04:32:15;;;;;;;1.00;0.50;;;;;;;6.97;86.64;99283.25;4895993;29;20663;-80
2021/05/04 04:34:41;;;;;;;0.65;0.50;;;;;;;7.19;85.86;99334.00;4891195;29;20909;-78
2021/05/04 04:37:07;;;;;;;0.55;0.52;;;;;;;7.23;84.69;99319.84;4893600;29;20305;-78
2021/05/04 04:39:32;;;;;;;0.40;0.40;;;;;;;7.19;86.01;99300.34;4903172;29;20074;-77
2021/05/04 04:41:58;;;;;;;0.70;0.47;;;;;;;7.07;85.90;99286.69;4890255;29;20047;-77
2021/05/04 04:44:24;;;;;;;0.30;0.30;;;;;;;7.28;85.81;99313.28;4878107;29;20052;-76
2021/05/04 04:46:50;;;;;;;0.50;0.50;;;;;;;7.23;86.58;99312.88;4910043;29;20074;-77
2021/05/04 04:49:18;;;;;;;0.65;0.50;;;;;;;7.27;86.06;99305.66;4904997;29;20143;-78
2021/05/04 04:51:45;;;;;;;0.57;0.55;;;;;;;7.25;86.89;99287.66;4897174;29;20562;-77
2021/05/04 04:54:11;;;;;;;0.30;0.30;;;;;;;7.16;86.33;99285.88;4879816;29;20055;-78
2021/05/04 04:56:36;;;;;;;0.57;0.43;;;;;;;7.20;86.41;99286.44;4884704;29;20040;-78
2021/05/04 04:59:03;;;;;;;1.17;0.50;;;;;;;7.20;86.80;99276.09;4881798;29;20108;-78
2021/05/04 05:01:29;;;;;;;0.40;0.35;;;;;;;7.19;85.77;99274.47;4887618;29;20056;-78
2021/05/04 05:03:54;;;;;;;0.50;0.50;;;;;;;7.31;86.02;99280.31;4877820;29;20048;-78
2021/05/04 05:06:20;;;;;;;1.25;0.52;;;;;;;7.22;85.71;99235.34;4917715;29;21263;-78
2021/05/04 05:08:49;;;;;;;0.63;0.45;;;;;;;7.37;85.88;99261.66;4883182;29;20484;-78
2021/05/04 05:11:14;;;;;;;0.40;0.40;;;;;;;7.39;85.43;99267.50;4906560;29;20542;-77
2021/05/04 05:13:40;;;;;;;0.40;0.40;;;;;;;7.19;85.67;99236.44;4884387;29;20052;-77
2021/05/04 05:16:05;;;;;;;0.60;0.47;;;;;;;7.21;85.92;99239.72;4870737;29;20467;-78
2021/05/04 05:18:31;;;;;;;0.30;0.30;;;;;;;7.38;85.95;99268.47;4881733;29;20048;-77
2021/05/04 05:20:57;;;;;;;0.35;0.35;;;;;;;7.17;85.20;99221.97;4886247;29;20045;-78
2021/05/04 05:23:22;;;;;;;0.30;0.30;;;;;;;7.46;85.06;99266.00;4892255;29;20063;-77
2021/05/04 05:25:48;;;;;;;0.40;0.40;;;;;;;7.42;85.32;99242.16;4895865;29;20043;-78
2021/05/04 05:28:14;;;;;;;0.30;0.30;;;;;;;7.33;85.09;99219.66;4874692;29;20426;-77
2021/05/04 05:30:42;;;;;;;0.30;0.30;;;;;;;7.35;85.28;99222.91;4906862;29;20491;-78
2021/05/04 05:33:08;;;;;;;0.45;0.40;;;;;;;7.16;86.17;99203.03;4917843;29;20087;-78
2021/05/04 05:35:35;;;;;;;0.60;0.40;;;;;;;7.11;87.18;99220.75;4876183;29;20048;-78
2021/05/04 05:38:05;;;;;;;0.40;0.40;;;;;;;7.07;87.88;99216.81;4896874;29;20055;-78
2021/05/04 05:40:31;;;;;;;0.50;0.45;;;;;;;7.23;88.17;99244.75;4874058;29;20479;-78
2021/05/04 05:42:57;;;;;;;1.10;0.60;;;;;;;7.10;88.55;99228.66;4888311;29;20514;-77
2021/05/04 05:45:22;;;;;;;0.82;0.50;;;;;;;7.13;88.66;99238.75;4886295;29;20044;-77
2021/05/04 05:47:48;;;;;;;0.40;0.40;;;;;;;6.94;89.01;99214.47;4890958;29;20526;-77
2021/05/04 05:50:14;;;;;;;1.35;0.45;;;;;;;7.06;89.32;99219.53;4886822;29;20044;-77
2021/05/04 05:52:39;;;;;;;1.05;0.43;;;;;;;7.06;89.76;99219.53;4884596;29;20431;-76
2021/05/04 05:55:05;;;;;;;0.45;0.40;;;;;;;7.16;89.13;99231.50;4904307;29;20827;-77
2021/05/04 05:57:31;;;;;;;0.50;0.50;;;;;;;7.10;90.05;99224.28;4916897;29;20123;-77
2021/05/04 05:59:57;;;;;;;2.05;0.70;;;;;;;7.16;89.94;99215.97;4897904;29;20092;-77
2021/05/04 06:02:22;;;;;;;0.45;0.40;;;;;;;7.01;90.67;99199.25;4890639;29;20040;-78
2021/05/04 06:04:48;;;;;;;0.90;0.50;;;;;;;6.90;89.51;99182.06;4866692;29;20044;-77
2021/05/04 06:07:13;;;;;;;0.60;0.43;;;;;;;7.07;90.07;99203.06;4870911;29;20048;-78
2021/05/04 06:09:40;;;;;;;0.50;0.47;;;;;;;7.10;89.58;99201.00;4911371;29;20044;-78
2021/05/04 06:12:07;;;;;;;0.50;0.40;;;;;;;7.16;89.24;99197.03;4896741;29;20048;-78
2021/05/04 06:14:32;;;;;;;1.48;0.55;;;;;;;7.40;89.88;99245.84;4907334;29;20056;-77
2021/05/04 06:16:58;;;;;;;0.50;0.50;;;;;;;7.44;89.01;99200.56;4897099;29;20100;-78
2021/05/04 06:19:23;;;;;;;0.68;0.40;;;;;;;7.37;87.91;99186.56;4888306;29;20455;-78
2021/05/04 06:21:49;;;;;;;0.40;0.40;;;;;;;7.50;87.44;99203.41;4891596;29;20075;-78
2021/05/04 06:24:14;;;;;;;0.40;0.40;;;;;;;7.51;88.54;99179.13;4880211;29;20048;-77
2021/05/04 06:26:40;;;;;;;0.55;0.40;;;;;;;7.60;87.26;99197.41;4923222;29;20052;-77
2021/05/04 06:29:07;;;;;;;1.30;1.02;;;;;;;7.63;88.38;99184.97;4885754;29;20100;-78
2021/05/04 06:31:32;;;;;;;0.57;0.40;;;;;;;7.72;86.71;99198.84;4911230;29;20048;-78
2021/05/04 06:33:58;;;;;;;0.50;0.40;;;;;;;7.71;87.25;99173.91;4924840;29;20494;-78
2021/05/04 06:36:24;;;;;;;0.40;0.40;;;;;;;7.73;85.41;99177.19;4884272;29;20051;-77
2021/05/04 06:38:49;;;;;;;0.43;0.43;;;;;;;7.86;85.60;99172.50;4904866;29;20096;-78
2021/05/04 06:41:15;;;;;;;0.40;0.38;;;;;;;8.10;85.08;99172.81;4907303;29;20060;-78
2021/05/04 06:43:40;;;;;;;0.35;0.35;;;;;;;7.98;85.39;99153.22;4887225;29;20044;-79
2021/05/04 06:46:06;;;;;;;0.60;0.60;;;;;;;8.01;85.01;99165.06;4920393;29;20043;-79
2021/05/04 06:48:32;;;;;;;0.50;0.47;;;;;;;8.09;85.74;99166.00;4892780;29;20630;-78
2021/05/04 06:50:59;;;;;;;0.68;0.40;;;;;;;8.04;85.50;99150.03;4947659;28;20055;-78
2021/05/04 06:53:25;;;;;;;0.60;0.40;;;;;;;8.12;84.00;99151.94;4922188;29;20892;-78
2021/05/04 06:55:51;;;;;;;1.45;0.38;;;;;;;7.80;85.71;99123.84;4930233;29;20051;-78
2021/05/04 06:58:18;;;;;;;0.55;0.40;;;;;;;7.88;86.00;99168.78;4912779;29;20047;-78
2021/05/04 07:00:44;;;;;;;0.63;0.43;;;;;;;7.71;87.38;99142.81;4917874;29;20040;-78
2021/05/04 07:03:09;;;;;;;0.65;0.40;;;;;;;7.72;86.51;99149.63;4890695;29;20054;-77
2021/05/04 07:05:35;;;;;;;0.30;0.30;;;;;;;7.79;87.11;99163.66;4899915;29;20510;-78
2021/05/04 07:08:01;;;;;;;0.68;0.50;;;;;;;7.94;86.26;99177.81;4916569;29;20051;-78
2021/05/04 07:10:26;;;;;;;0.57;0.57;;;;;;;8.06;87.02;99157.66;4930365;29;20916;-78
2021/05/04 07:12:52;;;;;;;0.50;0.50;;;;;;;8.28;84.68;99148.72;4933699;29;20086;-79
2021/05/04 07:15:18;;;;;;;0.63;0.50;;;;;;;8.35;84.68;99148.00;4928040;29;20063;-80
2021/05/04 07:17:44;;;;;;;1.23;0.60;;;;;;;8.61;84.60;99155.06;4921247;29;20043;-80
2021/05/04 07:20:10;;;;;;;0.90;0.60;;;;;;;8.94;85.75;99159.59;4913383;29;20490;-80
2021/05/04 07:22:36;;;;;;;0.60;0.50;;;;;;;8.87;84.54;99160.34;4882823;29;20062;-80
2021/05/04 07:25:04;;;;;;;0.68;0.60;;;;;;;8.79;83.75;99171.47;4915070;29;20047;-79
2021/05/04 07:27:29;;;;;;;0.88;0.70;;;;;;;8.45;84.23;99143.59;4911947;29;20134;-80
2021/05/04 07:29:55;;;;;;;0.50;0.50;;;;;;;8.50;84.46;99150.91;4929429;29;20051;-80
2021/05/04 07:32:21;;;;;;;1.25;0.70;;;;;;;8.66;84.54;99152.88;4886089;29;20443;-80
2021/05/04 07:34:48;;;;;;;0.57;0.45;;;;;;;8.60;83.07;99159.44;4908667;29;20055;-80
2021/05/04 07:37:14;;;;;;;1.30;0.73;;;;;;;8.59;84.92;99159.59;4931688;29;20036;-78
2021/05/04 07:39:42;;;;;;;1.13;0.70;;;;;;;8.57;83.15;99144.16;4918013;29;20769;-80
2021/05/04 07:42:10;;;;;;;1.05;0.55;;;;;;;8.57;82.16;99128.59;4923926;29;20056;-81
2021/05/04 07:44:35;;;;;;;0.75;0.68;;;;;;;8.75;80.71;99138.97;4911218;29;20087;-81
2021/05/04 07:47:01;;;;;;;1.02;0.65;;;;;;;8.72;81.81;99152.25;4910223;29;20059;-79
2021/05/04 07:49:44;;;;;;;1.15;0.77;;;;;;;9.02;83.06;99158.88;4921007;29;20689;-80
2021/05/04 07:52:11;;;;;;;1.10;0.60;;;;;;;8.49;81.33;99092.22;4909954;29;20066;-80
2021/05/04 07:54:36;;;;;;;0.98;0.77;;;;;;;8.72;82.94;99157.44;4941603;28;20071;-80
2021/05/04 07:57:02;;;;;;;0.75;0.60;;;;;;;8.56;84.91;99147.72;4928945;29;20062;-80
2021/05/04 07:59:27;;;;;;;0.88;0.77;;;;;;;8.39;85.79;99141.56;4873554;29;20143;-80
2021/05/04 08:01:53;;;;;;;1.38;0.68;;;;;;;8.36;84.55;99159.19;4891853;29;20063;-81
2021/05/04 08:04:19;;;;;;;1.30;0.70;;;;;;;8.35;86.69;99145.41;4897465;29;20046;-81
2021/05/04 08:06:44;;;;;;;1.85;1.10;;;;;;;8.44;85.01;99157.53;4910670;29;20082;-81
2021/05/04 08:09:10;;;;;;;0.95;0.60;;;;;;;8.50;84.84;99152.69;4891110;29;20081;-80
2021/05/04 08:11:36;;;;;;;0.85;0.65;;;;;;;7.98;82.99;99053.91;4892490;29;20044;-81
2021/05/04 08:14:04;;;;;;;0.95;0.63;;;;;;;8.61;83.35;99144.69;4897144;29;20058;-80
2021/05/04 08:16:31;;;;;;;1.42;0.90;;;;;;;8.72;81.88;99129.72;4921642;29;20495;-81
2021/05/04 08:18:57;;;;;;;1.70;0.80;;;;;;;9.04;80.21;99188.09;4913584;29;20044;-79
2021/05/04 08:21:24;;;;;;;1.80;0.93;;;;;;;9.04;80.55;99133.56;4891520;29;20478;-80
2021/05/04 08:23:49;;;;;;;1.38;0.90;;;;;;;9.26;79.71;99140.03;4931741;29;20047;-79
2021/05/04 08:26:15;;;;;;;1.27;0.57;;;;;;;9.55;78.07;99153.56;4884172;29;20558;-79
2021/05/04 08:28:41;;;;;;;0.60;0.50;;;;;;;9.56;75.89;99136.19;4909560;29;20051;-80
2021/05/04 08:31:07;;;;;;;0.90;0.77;;;;;;;9.92;75.45;99166.28;4918331;29;20043;-81
2021/05/04 08:33:33;;;;;;;0.70;0.60;;;;;;;9.61;74.76;99120.94;4947962;28;20159;-80
2021/05/04 08:35:58;;;;;;;1.60;0.60;;;;;;;9.60;74.65;99159.09;4905852;29;20566;-80
2021/05/04 08:38:24;;;;;;;1.00;0.73;;;;;;;9.52;75.62;99185.06;4929272;29;20043;-80
2021/05/04 08:40:50;;;;;;;1.08;0.60;;;;;;;9.36;77.68;99156.38;4920851;29;20566;-80
2021/05/04 08:43:22;;;;;;;0.60;0.57;;;;;;;9.25;76.64;99174.78;4899944;29;20039;-83
2021/05/04 08:45:57;;;;;;;0.73;0.60;;;;;;;9.26;76.41;99163.41;4916166;29;20048;-78
2021/05/04 08:48:24;;;;;;;0.93;0.63;;;;;;;9.47;75.71;99169.09;4910408;29;20060;-80
2021/05/04 08:50:55;;;;;;;1.20;0.60;;;;;;;9.79;75.86;99145.06;4901575;29;20046;-79
2021/05/04 08:53:21;;;;;;;0.70;0.65;;;;;;;9.85;76.17;99122.81;4919437;29;20063;-80
2021/05/04 08:55:46;;;;;;;1.10;0.70;;;;;;;10.26;73.36;99134.25;4920316;29;20054;-79
2021/05/04 08:58:12;;;;;;;1.38;0.65;;;;;;;10.44;71.09;99115.91;4920189;29;20055;-80
2021/05/04 09:00:38;;;;;;;0.50;0.40;;;;;;;10.90;70.53;99140.53;4921857;29;20522;-80
2021/05/04 09:03:12;;;;;;;0.35;0.35;;;;;;;10.84;68.64;99133.38;4903739;29;20064;-79
2021/05/04 09:06:06;;;;;;;1.10;0.70;;;;;;;10.52;69.18;99150.56;4935859;29;20841;-79
2021/05/04 09:11:37;;;;;;;0.70;0.68;;;;;;;9.29;79.38;99169.13;4932156;29;20074;-79
2021/05/04 09:22:06;;;;;;;0.40;0.40;;;;;;;8.78;80.30;99152.47;4920335;29;20074;-82
2021/05/04 09:24:41;;;;;;;0.52;0.40;;;;;;;8.92;77.88;99139.94;4927157;29;20056;-81
2021/05/04 09:27:15;;;;;;;0.43;0.40;;;;;;;9.30;77.03;99151.75;4937500;29;20530;-82
2021/05/04 09:29:43;;;;;;;0.50;0.50;;;;;;;9.56;78.55;99143.97;4912074;29;20078;-81
2021/05/04 09:32:12;;;;;;;0.50;0.40;;;;;;;9.62;76.68;99149.38;4930860;29;20097;-81
2021/05/04 09:34:47;;;;;;;0.40;0.40;;;;;;;9.69;76.11;99166.00;4892197;29;20406;-79
2021/05/04 09:37:27;;;;;;;0.73;0.50;;;;;;;9.69;73.18;99170.34;4914650;29;20422;-81
2021/05/04 09:39:54;;;;;;;0.32;0.32;;;;;;;9.82;73.06;99154.34;4911936;29;20546;-80
2021/05/04 09:42:21;;;;;;;0.50;0.50;;;;;;;10.16;72.12;99155.16;4910907;29;20055;-82
2021/05/04 09:44:50;;;;;;;0.43;0.40;;;;;;;10.16;72.49;99136.94;4896316;29;20048;-81
2021/05/04 09:47:21;;;;;;;0.50;0.50;;;;;;;10.19;69.74;99138.41;4923630;29;20050;-80
2021/05/04 09:49:48;;;;;;;0.65;0.40;;;;;;;10.26;73.12;99132.47;4879143;29;20095;-80
2021/05/04 09:55:09;;;;;;;0.57;0.40;;;;;;;10.16;74.17;99149.13;4911759;29;20039;-80
2021/05/04 09:57:43;;;;;;;0.35;0.35;;;;;;;9.65;77.30;99156.03;4911052;29;20529;-79
2021/05/04 10:00:26;;;;;;;0.45;0.40;;;;;;;9.39;77.64;99141.28;4878433;29;20043;-80
2021/05/04 10:02:52;;;;;;;0.52;0.40;;;;;;;9.38;77.66;99144.03;4911003;29;20972;-80
2021/05/04 10:05:18;;;;;;;0.40;0.40;;;;;;;9.60;77.56;99137.50;4886334;29;20047;-80
2021/05/04 10:07:48;;;;;;;0.73;0.50;;;;;;;9.59;73.69;99134.09;4898391;29;20044;-79
2021/05/04 10:10:16;;;;;;;0.93;0.57;;;;;;;9.94;75.74;99111.50;4940139;28;20051;-80
2021/05/04 10:12:43;;;;;;;0.60;0.40;;;;;;;10.48;74.51;99118.03;4899730;29;20051;-81
2021/05/04 10:15:11;;;;;;;0.50;0.50;;;;;;;10.29;70.33;99126.94;4927702;29;20135;-79
2021/05/04 10:17:39;;;;;;;0.60;0.50;;;;;;;10.21;70.26;99128.69;4903518;29;20058;-79
2021/05/04 10:20:10;;;;;;;0.50;0.50;;;;;;;10.04;72.47;99100.97;4929087;29;20095;-79
2021/05/04 10:22:37;;;;;;;0.45;0.40;;;;;;;9.85;71.55;99122.81;4897071;29;20491;-79
2021/05/04 10:25:11;;;;;;;0.80;0.50;;;;;;;9.57;74.60;99128.22;4931359;29;20475;-80
2021/05/04 10:27:38;;;;;;;0.50;0.50;;;;;;;9.00;78.00;99140.84;4893621;29;20662;-79
2021/05/04 10:30:06;;;;;;;0.30;0.30;;;;;;;8.99;80.08;99122.81;4894275;29;20062;-77
2021/05/04 10:32:49;;;;;;;0.52;0.50;;;;;;;8.79;79.19;99137.72;4925385;28;20088;-78
2021/05/04 10:35:31;;;;;;;0.40;0.40;;;;;;;8.69;79.70;99137.00;4906378;29;20415;-79
2021/05/04 10:38:07;;;;;;;0.30;0.30;;;;;;;8.78;80.42;99139.50;4863592;29;20036;-79
2021/05/04 10:40:36;;;;;;;0.57;0.40;;;;;;;8.73;81.48;99125.34;4908503;29;20063;-80
2021/05/04 10:43:22;;;;;;;0.50;0.30;;;;;;;8.64;80.96;99163.41;4891232;29;20048;-80
2021/05/04 10:45:52;;;;;;;0.85;0.50;;;;;;;8.52;83.29;99176.72;4891269;29;20154;-79
2021/05/04 10:48:39;;;;;;;0.40;0.40;;;;;;;8.05;85.92;99166.41;4903349;29;20052;-79
2021/05/04 10:51:08;;;;;;;0.30;0.30;;;;;;;8.01;82.45;99191.00;4880284;29;20490;-77
2021/05/04 10:53:49;;;;;;;0.38;0.30;;;;;;;7.93;82.92;99183.94;4907457;29;20032;-79
2021/05/04 10:56:16;;;;;;;0.43;0.43;;;;;;;7.89;83.86;99182.56;4894279;29;20095;-79
2021/05/04 10:58:44;;;;;;;0.40;0.40;;;;;;;7.86;82.94;99190.63;4893478;29;20442;-79
2021/05/04 11:01:10;;;;;;;0.30;0.30;;;;;;;7.68;82.41;99161.22;4892433;29;20505;-79
2021/05/04 11:03:35;;;;;;;0.40;0.40;;;;;;;8.02;83.04;99188.25;4878491;29;20060;-79
2021/05/04 11:06:06;;;;;;;0.30;0.20;;;;;;;8.06;82.78;99183.59;4918694;29;20524;-78
2021/05/04 11:08:41;;;;;;;0.30;0.30;;;;;;;8.24;81.91;99199.22;4893462;29;20048;-79
2021/05/04 11:11:22;;;;;;;0.35;0.30;;;;;;;8.59;81.72;99178.56;4895435;29;20048;-79
2021/05/04 11:13:53;;;;;;;0.43;0.40;;;;;;;8.75;79.66;99165.75;4889778;29;20057;-80
2021/05/04 11:16:42;;;;;;;0.50;0.40;;;;;;;9.33;79.96;99178.25;4887239;29;20082;-79
2021/05/04 11:19:13;;;;;;;0.40;0.40;;;;;;;9.40;77.87;99178.47;4898117;29;20517;-81
2021/05/04 11:21:48;;;;;;;0.30;0.30;;;;;;;9.39;76.53;99174.25;4907585;29;20044;-80
2021/05/04 11:24:16;;;;;;;0.30;0.20;;;;;;;9.01;76.72;99162.44;4882400;29;20047;-79
2021/05/04 11:26:50;;;;;;;0.63;0.28;;;;;;;8.88;75.75;99185.34;4906192;29;20096;-79
2021/05/04 11:29:17;;;;;;;;;;;;;;;8.47;78.21;99184.94;4876014;29;20059;-80
2021/05/04 11:31:48;;;;;;;0.40;0.30;;;;;;;8.13;80.03;99226.16;4890475;29;19971;-80
2021/05/04 11:34:32;;;;;;;0.30;0.30;;;;;;;7.79;81.24;99244.00;4895757;29;20451;-80
2021/05/04 11:36:58;;;;;;;0.30;0.30;;;;;;;7.32;80.46;99277.56;4895144;29;20044;-78
2021/05/04 11:39:25;;;;;;;0.30;0.30;;;;;;;7.02;82.53;99249.25;4870718;29;20736;-77
2021/05/04 11:41:58;;;;;;;0.50;0.50;;;;;;;6.93;85.55;99219.78;4891068;29;20079;-79
2021/05/04 11:44:29;;;;;;;0.32;0.32;;;;;;;6.79;81.19;99171.03;4879083;29;20052;-77
2021/05/04 11:46:55;;;;;;;0.43;0.40;;;;;;;7.70;84.56;99258.59;4912773;29;20051;-78
2021/05/04 11:49:26;;;;;;;0.30;0.30;;;;;;;7.81;81.64;99252.44;4893798;29;20481;-80
2021/05/04 11:52:08;;;;;;;0.40;0.40;;;;;;;7.54;80.22;99225.50;4879004;29;20774;-78
2021/05/04 11:54:34;;;;;;;1.02;0.40;;;;;;;7.84;80.64;99240.03;4886676;29;20115;-80
2021/05/04 11:57:01;;;;;;;0.40;0.40;;;;;;;7.66;81.80;99252.06;4922685;29;20036;-80